Tiempo atmosférico en la estación meteorológica de Leciñena, Zaragoza (405 m.)



Fecha
DESCASC
Temp. máxima en grados centígrados (hora)
DESCASC
Temp. mínima en grados centígrados (hora)
DESCASC
Temp. media en grados centígrados
DESCASC
Racha de viento máxima en m/sg (hora)
DESCASC
Velocidad máxima media en intervalos de 10 minutos(hora)
DESCASC
Precipitaciones diarias en mm
DESCASC
Precipitaciones de 00:00 a 06:00 en mm
DESCASC
Precipitaciones de 06:00 a 12:00 en mm
DESCASC
Precipitaciones de 12:00 a 18:00 en mm
DESCASC
Precipitaciones de 18:00 a 24:00 en mm
DESCASC
16-06-2019 30.8 (17:40) 8.6 (05:30) 19.7 7.22 (19:30) 3.89 (23:30) 0 0 0 0 0
15-06-2019 26.1 (16:50) 11.2 (06:40) 18.7 9.72 (14:20) 5.56 (20:20) 0 0 0 0 0
14-06-2019 29.4 (18:50) 12.7 (06:50) 21 8.61 (23:20) 4.72 (23:20) 0 0 0 0 0
13-06-2019 27.2 (17:50) 13 (00:00) 20.1 15.28 (18:50) 8.33 (19:00) 0 0 0 0 0
12-06-2019 24.1 (19:10) 4.5 (00:00) 14.3 10 (20:20) 5.83 (23:59) 0 0 0 0 0
11-06-2019 19.3 (16:00) 9.8 (00:00) 14.5 13.33 (17:30) 9.72 (19:40) 0.2 0.2 0 0 0
10-06-2019 22.5 (15:10) 11.4 (00:00) 16.9 15 (13:20) 7.22 (19:00) 0 0 0 0 0
09-06-2019 30.4 (16:00) 16.2 (00:00) 23.3 11.67 (02:00) 7.22 (21:40) 0 0 0 0 0
08-06-2019 27.2 (16:20) 5.5 (00:00) 16.4 11.67 (16:40) 6.39 (19:20) 0 0 0 0 0
07-06-2019 23.5 (17:40) 11.1 (00:00) 17.3 15 (01:00) 9.72 (00:50) 0.4 0 0.4 0 0
06-06-2019 26.3 (16:20) 8 (00:00) 17.1 17.22 (21:20) 9.72 (21:20) 0 0 0 0 0
05-06-2019 19.7 (00:00) 10 (00:00) 14.9 13.33 (16:00) 8.89 (17:30) 1.8 0 1.2 0.6 0
04-06-2019 31.7 (17:00) 17.8 (00:00) 24.8 13.06 (20:50) 7.22 (21:20) 0 0 0 0 0
03-06-2019 33.1 (15:40) 14.9 (00:00) 24 12.22 (00:30) 5.83 (02:40) 0 0 0 0 0
02-06-2019 34.3 (17:50) 16.3 (00:00) 25.3 8.61 (22:00) 5.28 (22:10) 0 0 0 0 0
01-06-2019 32.6 (17:10) 15.6 (00:00) 24.1 8.89 (22:40) 5.28 (22:20) 0 0 0 0 0
31-05-2019 30.3 (18:30) 11.7 (00:00) 21 7.5 (11:10) 3.89 (04:10) 0 0 0 0 0
30-05-2019 28.3 (18:40) 5.4 (00:00) 16.8 5.56 (15:20) 3.61 (20:20) 0 0 0 0 0
29-05-2019 21.6 (16:10) 8.5 (00:00) 15.1 15.83 (11:20) 10.28 (00:10) 0 0 0 0 0
28-05-2019 19.7 (16:20) 10.4 (00:00) 15.1 20.83 (13:20) 14.44 (18:40) 0 0 0 0 0
27-05-2019 23.9 (17:10) 8.7 (00:00) 16.3 16.39 (20:20) 11.11 (22:00) 0 0 0 0 0
26-05-2019 23.2 (15:20) 9.4 (00:00) 16.3 12.78 (17:20) 8.06 (17:30) 0 0 0 0 0
25-05-2019 22.5 (15:20) 11 (00:00) 16.8 15.83 (17:20) 10 (17:30) 0 0 0 0 0
24-05-2019 20.3 (15:00) 12.2 (00:00) 16.2 13.61 (19:00) 9.17 (19:00) 23 6.8 16.2 0 0
23-05-2019 27.8 (16:30) 8.5 (00:00) 18.1 11.11 (19:40) 7.5 (19:50) 0.2 0 0 0 0.2
22-05-2019 26.4 (18:10) 5.6 (00:00) 16 7.22 (15:10) 3.89 (15:10) 0 0 0 0 0
21-05-2019 24.4 (17:10) 4.4 (06:00) 14.4 8.33 (15:50) 4.44 (20:10) 0 0 0 0 0

Gráficas

Temp. máximas Temp. mínimas Temp. medias Precipitaciones Rachas de viento máximas Velocidades máximas media en intervalos de 10 minutos

Datos horarios

Fecha y hora oficial Temperatura (ºC) Velocidad del viento (km/h) Dirección del viento Racha (km/h) Dirección de racha Precipitación (mm) Presión (hPa) Tendencia (hPa) Humedad (%)
2019-06-19 23:00:00 23 0 Calma 5 Noroeste 0 -- -- 45
2019-06-19 22:00:00 25.7 0 Calma 9 Este 0 -- -- 37
2019-06-19 21:00:00 27.9 6 Este 17 Nordeste 0 -- -- 34
2019-06-19 20:00:00 28.8 9 Nordeste 25 Nordeste 0 -- -- 32
2019-06-19 19:00:00 30 10 Nordeste 24 Nordeste 0 -- -- 31
2019-06-19 18:00:00 30.2 12 Nordeste 30 Noroeste 0 -- -- 31
2019-06-19 17:00:00 30.5 8 Nordeste 27 Norte 0 -- -- 32
2019-06-19 16:00:00 30.6 12 Norte 23 Nordeste 0 -- -- 32
2019-06-19 15:00:00 29.1 7 Norte -- -- -- -- -- 34
2019-06-19 14:00:00 -- -- -- -- -- -- -- -- --
2019-06-19 13:00:00 28.1 7 Norte -- -- -- -- -- 37
2019-06-19 12:00:00 -- -- -- -- -- -- -- -- --
2019-06-19 11:00:00 -- -- -- -- -- -- -- -- --
2019-06-19 10:00:00 -- -- -- -- -- -- -- -- --
2019-06-19 09:00:00 -- -- -- -- -- -- -- -- --
2019-06-19 08:00:00 -- -- -- -- -- -- -- -- --
2019-06-19 07:00:00 -- -- -- -- -- -- -- -- --
2019-06-19 06:00:00 -- -- -- -- -- -- -- -- --
2019-06-19 05:00:00 -- -- -- -- -- -- -- -- --
2019-06-19 04:00:00 -- -- -- -- -- -- -- -- --
2019-06-19 03:00:00 -- -- -- -- -- -- -- -- --
2019-06-19 02:00:00 -- -- -- -- -- -- -- -- --
2019-06-19 01:00:00 -- -- -- -- -- -- -- -- --
2019-06-19 00:00:00 -- -- -- -- -- -- -- -- --
2019-06-18 23:00:00 -- -- -- -- -- -- -- -- --
2019-06-18 22:00:00 -- -- -- -- -- -- -- -- --
2019-06-18 21:00:00 -- -- -- -- -- -- -- -- --
2019-06-18 20:00:00 -- -- -- -- -- -- -- -- --
2019-06-18 19:00:00 31.6 5 Este 36 Sudeste 0 -- -- 31
2019-06-18 18:00:00 33.6 8 Sudeste 40 Sur 0 -- -- 25
2019-06-18 17:00:00 33.1 8 Sur 32 Sur 0 -- -- 26
2019-06-18 16:00:00 33.7 10 Sur 35 Sur 0 -- -- 23
2019-06-18 15:00:00 32.4 10 Sur 25 Sur 0 -- -- 25
2019-06-18 14:00:00 31.9 8 Sudeste 26 Sur 0 -- -- 26
2019-06-18 13:00:00 30.9 10 Sur 23 Sur 0 -- -- 26
2019-06-18 12:00:00 29.6 6 Sudeste 20 Sudeste 0 -- -- 27
2019-06-18 11:00:00 26.8 4 Sudeste 23 Sur 0 -- -- 30
2019-06-18 10:00:00 23.5 11 Sur 33 Sur 0 -- -- 36
2019-06-18 09:00:00 21.6 13 Sudeste 37 Sur 0 -- -- 38
2019-06-18 08:00:00 21.3 15 Sur 31 Sur 0 -- -- 38
2019-06-18 07:00:00 20.9 12 Sudeste 34 Sur 0 -- -- 39
2019-06-18 06:00:00 20.8 9 Sudeste 33 Sur 0 -- -- 38
2019-06-18 05:00:00 20.9 12 Sudeste 39 Sur 0 -- -- 38
2019-06-18 04:00:00 20.8 11 Sudeste 41 Sudeste 0 -- -- 41
2019-06-18 03:00:00 20.9 12 Sudeste 34 Sur 0 -- -- 43
2019-06-18 02:00:00 20.9 5 Sudeste 19 Sur 0 -- -- 50
2019-06-18 01:00:00 23 4 Este 28 Sur 0 -- -- 46
2019-06-18 00:00:00 26.5 17 Sur 30 Sur 0 -- -- 31
2019-06-17 23:00:00 27 15 Sur 37 Sur 0 -- -- 33
2019-06-17 22:00:00 27.7 17 Sur 29 Sudoeste 0 -- -- 30
2019-06-17 21:00:00 29.3 20 Sur 33 Sur 0 -- -- 33
2019-06-17 20:00:00 31.9 9 Sudeste 29 Sur 0 -- -- 23
2019-06-17 19:00:00 33.4 10 Sudeste 28 Nordeste 0 -- -- 20
2019-06-17 18:00:00 33.6 3 Sur 21 Oeste 0 -- -- 16
2019-06-17 17:00:00 33.9 12 Oeste 21 Oeste 0 -- -- 18
2019-06-17 16:00:00 33.8 8 Sudoeste 25 Oeste 0 -- -- 18
2019-06-17 15:00:00 32.6 10 Sudoeste 23 Oeste 0 -- -- 21
2019-06-17 14:00:00 32.1 7 Oeste 23 Oeste 0 -- -- 25
2019-06-17 13:00:00 30.6 14 Sudoeste 24 Sudoeste 0 -- -- 28
2019-06-17 12:00:00 29.4 11 Sudoeste 22 Sudoeste 0 -- -- 29
2019-06-17 11:00:00 27.1 5 Sudoeste 18 Sur 0 -- -- 36
2019-06-17 10:00:00 24.3 5 Sudeste 15 Sur 0 -- -- 40
2019-06-17 09:00:00 20.3 5 Nordeste 9 Norte 0 -- -- 53
2019-06-17 08:00:00 17.9 3 Nordeste 6 Sur 0 -- -- 59
2019-06-17 07:00:00 15.5 3 Sudoeste 18 Oeste 0 -- -- 64
2019-06-17 06:00:00 19.1 10 Sur 23 Sur 0 -- -- 50
2019-06-17 05:00:00 17.3 5 Oeste 10 Oeste 0 -- -- 61
2019-06-17 04:00:00 18.5 6 Sur 21 Sur 0 -- -- 59
2019-06-17 03:00:00 18.8 5 Sudoeste 25 Sur 0 -- -- 57
2019-06-17 02:00:00 19.6 3 Norte 14 Este 0 -- -- 51
2019-06-17 01:00:00 21.2 2 Noroeste 13 Sur 0 -- -- 41
2019-06-17 00:00:00 23.8 12 Sudoeste 22 Sur 0 -- -- 34
2019-06-16 23:00:00 24 8 Sur 15 Sur 0 -- -- 41
2019-06-16 22:00:00 24 7 Sur 16 Sur 0 -- -- 36
2019-06-16 21:00:00 27 4 Sudeste 25 Sur 0 -- -- 30
2019-06-16 20:00:00 28.2 10 Sur 26 Sur 0 -- -- 28
2019-06-16 19:00:00 30 7 Sudeste 22 Sur 0 -- -- 26
2019-06-16 18:00:00 30.3 5 Norte 18 Norte 0 -- -- 18
2019-06-16 17:00:00 30.5 4 Este 20 Oeste 0 -- -- 19
2019-06-16 16:00:00 29.6 7 Sur 20 Oeste 0 -- -- 21
2019-06-16 15:00:00 28.7 7 Noroeste 20 Oeste 0 -- -- 26
2019-06-16 14:00:00 28 9 Noroeste 17 Oeste 0 -- -- 29
2019-06-16 13:00:00 26.2 6 Oeste 16 Oeste 0 -- -- 33
2019-06-16 12:00:00 23.8 4 Sur 10 Sur 0 -- -- 38
2019-06-16 11:00:00 20.9 5 Norte 14 Norte 0 -- -- 45
2019-06-16 10:00:00 17.6 5 Nordeste 10 Nordeste 0 -- -- 54
2019-06-16 09:00:00 15.4 3 Norte 8 Norte 0 -- -- 61
2019-06-16 08:00:00 14.1 0 Calma 6 Sudoeste 0 -- -- 65
2019-06-16 07:00:00 9.5 0 Calma 4 Sudoeste 0 -- -- 80
2019-06-16 06:00:00 9.2 0 Calma 4 Sudeste 0 -- -- 80
2019-06-16 05:00:00 9.6 0 Calma 5 Oeste 0 -- -- 77
2019-06-16 04:00:00 10.6 3 Sudoeste 5 Sur 0 -- -- 74
2019-06-16 03:00:00 12.7 3 Oeste 12 Sudoeste 0 -- -- 67
2019-06-16 02:00:00 14.2 8 Sudoeste 12 Sudoeste 0 -- -- 62
2019-06-16 01:00:00 14.4 5 Sudoeste 9 Sur 0 -- -- 56
2019-06-16 00:00:00 16.1 0 Calma 8 Nordeste 0 -- -- 51
2019-06-15 23:00:00 17.4 3 Nordeste 12 Nordeste 0 -- -- 47
2019-06-15 22:00:00 19.8 11 Nordeste 25 Norte 0 -- -- 42
2019-06-15 21:00:00 22.7 17 Nordeste 32 Norte 0 -- -- 36
2019-06-15 20:00:00 24.3 16 Norte 27 Norte 0 -- -- 32
2019-06-15 19:00:00 25.5 14 Norte 27 Norte 0 -- -- 31
2019-06-15 18:00:00 25.5 12 Norte 31 Norte 0 -- -- 31
2019-06-15 17:00:00 26 15 Norte 30 Norte 0 -- -- 30
2019-06-15 16:00:00 25.4 15 Norte 32 Norte 0 -- -- 29
2019-06-15 15:00:00 24.9 16 Norte 35 Norte 0 -- -- 31
2019-06-15 14:00:00 24.4 16 Norte 33 Norte 0 -- -- 31
2019-06-15 13:00:00 23.8 13 Noroeste 30 Norte 0 -- -- 41
2019-06-15 12:00:00 21.9 18 Noroeste 29 Noroeste 0 -- -- 45
2019-06-15 11:00:00 19.6 16 Noroeste 30 Oeste 0 -- -- 52
2019-06-15 10:00:00 17 11 Norte 21 Norte 0 -- -- 63
2019-06-15 09:00:00 15.2 12 Noroeste 23 Norte 0 -- -- 70
2019-06-15 08:00:00 14 8 Noroeste 15 Noroeste 0 -- -- 74
2019-06-15 07:00:00 11.7 7 Oeste 17 Noroeste 0 -- -- 84
2019-06-15 06:00:00 12 4 Sudoeste 18 Noroeste 0 -- -- 84
2019-06-15 05:00:00 13.1 14 Noroeste 22 Oeste 0 -- -- 82
2019-06-15 04:00:00 13.1 10 Oeste 17 Oeste 0 -- -- 81
2019-06-15 03:00:00 13.4 4 Noroeste 11 Norte 0 -- -- 77
2019-06-15 02:00:00 14.9 3 Sudoeste 22 Oeste 0 -- -- 75
2019-06-15 01:00:00 17.7 16 Oeste 22 Oeste 0 -- -- 61
2019-06-15 00:00:00 20.3 10 Oeste 31 Sudoeste 0 -- -- 37
2019-06-14 23:00:00 21.9 4 Noroeste 16 Sur 0 -- -- 47
2019-06-14 22:00:00 24.9 10 Sudeste 19 Sudeste 0 -- -- 38
2019-06-14 21:00:00 27.1 8 Sudoeste 20 Sudoeste 0 -- -- 32
2019-06-14 20:00:00 28.5 6 Sudoeste 18 Sur 0 -- -- 30
2019-06-14 19:00:00 28.8 10 Sudoeste 18 Oeste 0 -- -- 31
2019-06-14 18:00:00 29.1 4 Sudeste 21 Sur 0 -- -- 29
2019-06-14 17:00:00 27.9 6 Este 15 Nordeste 0 -- -- 30
2019-06-14 16:00:00 26.5 5 Sudoeste 13 Noroeste 0 -- -- 36
2019-06-14 15:00:00 24.2 5 Nordeste 14 Noroeste 0 -- -- 43
2019-06-14 14:00:00 21.5 4 Noroeste 10 Nordeste 0 -- -- 47
2019-06-14 13:00:00 20.2 2 Nordeste 11 Noroeste 0 -- -- 46
2019-06-14 12:00:00 17.7 5 Oeste 18 Oeste 0 -- -- 56
2019-06-14 11:00:00 17 0 Calma 11 Sur 0 -- -- 56
2019-06-14 10:00:00 14.5 4 Sudeste 14 Sur 0 -- -- 66
2019-06-14 09:00:00 15.4 4 Sur 13 Sudoeste 0 -- -- 51
2019-06-14 08:00:00 14.6 0 Calma 9 Sur 0 -- -- 49
2019-06-14 07:00:00 13.2 4 Sur 10 Sur 0 -- -- 47
2019-06-14 06:00:00 14 7 Sur 17 Noroeste 0 -- -- 42
2019-06-14 05:00:00 15.6 10 Noroeste 29 Sudeste 0 -- -- 41
2019-06-14 04:00:00 17.6 8 Sudeste 28 Sur 0 -- -- 38
2019-06-14 03:00:00 17.5 9 Sur 29 Sur 0 -- -- 40
2019-06-14 02:00:00 17.9 10 Sudeste 24 Sur 0 -- -- 37
2019-06-14 01:00:00 19.3 3 Este 18 Sudoeste 0 -- -- 33
2019-06-14 00:00:00 19.7 9 Sur 31 Sur 0 -- -- 31
2019-06-13 23:00:00 20.9 17 Sur 47 Sur 0 -- -- 35
2019-06-13 22:00:00 21.6 24 Sur 44 Sur 0 -- -- 34
2019-06-13 21:00:00 21.5 17 Sur 41 Sur 0 -- -- 42
2019-06-13 20:00:00 23.4 26 Sur 53 Sur 0 -- -- 35
2019-06-13 19:00:00 25 30 Sur 55 Sur 0 -- -- 42
2019-06-13 18:00:00 26.7 24 Sur 46 Sur 0 -- -- 31
2019-06-13 17:00:00 26.5 15 Sudeste 42 Sudeste 0 -- -- 35
2019-06-13 16:00:00 25.7 10 Sudeste 46 Sudeste 0 -- -- 40
2019-06-13 15:00:00 24.7 16 Sudeste 44 Sur 0 -- -- 43
2019-06-13 14:00:00 24.9 18 Sur 49 Sur 0 -- -- 44
2019-06-13 13:00:00 22.8 14 Sudeste 40 Sur 0 -- -- 49
2019-06-13 12:00:00 21.2 19 Sur 40 Sur 0 -- -- 51
2019-06-13 11:00:00 19.3 8 Sudeste 34 Sur 0 -- -- 55
2019-06-13 10:00:00 16.6 10 Sudeste 45 Sudeste 0 -- -- 60
2019-06-13 09:00:00 15.3 14 Sudeste 35 Sudeste 0 -- -- 60
2019-06-13 08:00:00 13.9 10 Sudeste 37 Sur 0 -- -- 59
2019-06-13 07:00:00 13 13 Sudeste 41 Sur 0 -- -- 60
2019-06-13 06:00:00 13.4 16 Sur 38 Sudeste 0 -- -- 57
2019-06-13 05:00:00 13.1 6 Sudeste 33 Sur 0 -- -- 62
2019-06-13 04:00:00 13.1 6 Sudeste 30 Sudeste 0 -- -- 62
2019-06-13 03:00:00 13.8 8 Sur 28 Sur 0 -- -- 58
2019-06-13 02:00:00 16.8 8 Sudeste 39 Sur 0 -- -- 39
2019-06-13 01:00:00 16.9 19 Sudoeste 37 Sur 0 -- -- 41
2019-06-13 00:00:00 17.6 21 Sur 36 Sur 0 -- -- 41
2019-06-12 23:00:00 18.2 12 Sur 24 Sur 0 -- -- 42
2019-06-12 22:00:00 19.1 9 Sur 32 Sur 0 -- -- 36
2019-06-12 21:00:00 20.8 16 Sur 36 Sur 0 -- -- 32
2019-06-12 20:00:00 22.5 15 Sur 29 Sudeste 0 -- -- 29
2019-06-12 19:00:00 23.9 4 Oeste 19 Sudoeste 0 -- -- 27
2019-06-12 18:00:00 23.6 10 Oeste 29 Oeste 0 -- -- 28
2019-06-12 17:00:00 23.6 8 Oeste 22 Oeste 0 -- -- 27
2019-06-12 16:00:00 22.7 12 Noroeste 23 Noroeste 0 -- -- 29
2019-06-12 15:00:00 21.6 8 Oeste 23 Norte 0 -- -- 30
2019-06-12 14:00:00 20.5 8 Norte 24 Noroeste 0 -- -- 33
2019-06-12 13:00:00 19.2 10 Sudoeste 22 Oeste 0 -- -- 36
2019-06-12 12:00:00 17.4 3 Este 14 Norte 0 -- -- 41
2019-06-12 11:00:00 15.4 4 Norte 14 Norte 0 -- -- 46
2019-06-12 10:00:00 13.5 8 Norte 15 Norte 0 -- -- 56
2019-06-12 09:00:00 10.8 3 Norte 6 Nordeste 0 -- -- 64
2019-06-12 08:00:00 8.5 0 Calma 6 Sudoeste 0 -- -- 76
2019-06-12 07:00:00 4.5 0 Calma 7 Sur 0 -- -- 85
2019-06-12 06:00:00 4.9 2 Sudoeste 7 Sur 0 -- -- 84
2019-06-12 05:00:00 5.3 5 Sudoeste 10 Sudoeste 0 -- -- 82
2019-06-12 04:00:00 7 4 Sudoeste 9 Noroeste 0 -- -- 78
2019-06-12 03:00:00 7.5 3 Noroeste 12 Nordeste 0 -- -- 77
2019-06-12 02:00:00 9.7 7 Norte 16 Norte 0 -- -- 68
2019-06-12 01:00:00 9.9 2 Nordeste 10 Nordeste 0 -- -- 68
2019-06-12 00:00:00 10.8 8 Nordeste 20 Norte 0 -- -- 64
2019-06-11 23:00:00 11.8 12 Norte 33 Norte 0 -- -- 59
2019-06-11 22:00:00 13.3 18 Norte 37 Norte 0 -- -- 53
2019-06-11 21:00:00 14.9 22 Norte 46 Nordeste 0 -- -- 47
2019-06-11 20:00:00 16.8 27 Norte 48 Norte 0 -- -- 42
2019-06-11 19:00:00 18 32 Norte 47 Norte 0 -- -- 40
2019-06-11 18:00:00 18.5 29 Norte 48 Norte 0 -- -- 37
2019-06-11 17:00:00 18.8 26 Norte 45 Norte 0 -- -- 37
2019-06-11 16:00:00 19.3 23 Norte 39 Norte 0 -- -- 38
2019-06-11 15:00:00 19 24 Norte 43 Norte 0 -- -- 36
2019-06-11 14:00:00 17.8 23 Norte 39 Nordeste 0 -- -- 46
2019-06-11 13:00:00 14.9 21 Norte 40 Norte 0 -- -- 54
2019-06-11 12:00:00 13.2 16 Norte 30 Nordeste 0 -- -- 68
2019-06-11 11:00:00 11.7 17 Norte 31 Norte 0 -- -- 74
2019-06-11 10:00:00 10.9 16 Norte 22 Norte 0 -- -- 78
2019-06-11 09:00:00 10 5 Noroeste 19 Noroeste 0 -- -- 85
2019-06-11 08:00:00 9.9 10 Norte 18 Norte 0 -- -- 85
2019-06-11 07:00:00 10.1 8 Norte 23 Norte 0 -- -- 79
2019-06-11 06:00:00 10.6 0 Calma 6 Sudoeste 0 -- -- 81
2019-06-11 05:00:00 10.5 7 Nordeste 13 Nordeste 0.2 -- -- 82
2019-06-11 04:00:00 10.7 9 Norte 19 Norte 0 -- -- 79
2019-06-11 03:00:00 12.1 8 Noroeste 23 Norte 0 -- -- 64
2019-06-11 02:00:00 12.9 10 Noroeste 26 Noroeste 0 -- -- 57
2019-06-11 01:00:00 13.5 11 Noroeste 20 Noroeste 0 -- -- 52
2019-06-11 00:00:00 14.1 9 Noroeste 23 Norte 0 -- -- 53
2019-06-10 23:00:00 14.6 15 Norte 27 Norte 0 -- -- 51
2019-06-10 22:00:00 15 10 Norte 24 Noroeste 0 -- -- 52
2019-06-10 21:00:00 16.3 14 Norte 33 Norte 0 -- -- 48
2019-06-10 20:00:00 18 22 Norte 38 Nordeste 0 -- -- 42
2019-06-10 19:00:00 20.3 26 Norte 39 Norte 0 -- -- 38
2019-06-10 18:00:00 20.9 23 Norte 36 Norte 0 -- -- 37
2019-06-10 17:00:00 21.8 20 Norte 40 Norte 0 -- -- 38
2019-06-10 16:00:00 22.5 20 Norte 33 Norte 0 -- -- 38
2019-06-10 15:00:00 21.9 19 Norte 39 Norte 0 -- -- 42
2019-06-10 14:00:00 21.3 21 Norte 54 Norte 0 -- -- 44
2019-06-10 13:00:00 20.4 17 Norte 35 Norte 0 -- -- 46
2019-06-10 12:00:00 19.2 17 Norte 37 Norte 0 -- -- 52
2019-06-10 11:00:00 17.9 17 Norte 38 Noroeste 0 -- -- 55
2019-06-10 10:00:00 15.9 18 Norte 32 Norte 0 -- -- 62
2019-06-10 09:00:00 14.2 16 Norte 27 Noroeste 0 -- -- 68
2019-06-10 08:00:00 13.1 11 Norte 24 Norte 0 -- -- 74
2019-06-10 07:00:00 11.9 8 Noroeste 17 Noroeste 0 -- -- 78
2019-06-10 06:00:00 11.4 3 Norte 15 Norte 0 -- -- 81
2019-06-10 05:00:00 12.6 6 Norte 23 Norte 0 -- -- 77
2019-06-10 04:00:00 13.5 14 Norte 31 Norte 0 -- -- 74
2019-06-10 03:00:00 14.7 19 Norte 31 Norte 0 -- -- 71
2019-06-10 02:00:00 15.3 13 Norte 24 Norte 0 -- -- 70
2019-06-10 01:00:00 16 16 Norte 29 Norte 0 -- -- 68
2019-06-10 00:00:00 16.7 13 Norte 25 Norte 0 -- -- 65
2019-06-09 23:00:00 17.5 9 Norte 28 Nordeste 0 -- -- 63
2019-06-09 22:00:00 21.3 21 Norte 39 Norte 0 -- -- 50
2019-06-09 21:00:00 27.1 5 Sudoeste 9 Sudoeste 0 -- -- 29
2019-06-09 20:00:00 29 0 Calma 13 Noroeste 0 -- -- 23
2019-06-09 19:00:00 29.4 6 Norte 22 Noroeste 0 -- -- 24
2019-06-09 18:00:00 29 6 Noroeste 18 Noroeste 0 -- -- 26
2019-06-09 17:00:00 29.5 14 Norte 23 Norte 0 -- -- 24
2019-06-09 16:00:00 30.4 8 Oeste 20 Noroeste 0 -- -- 23
2019-06-09 15:00:00 29.1 6 Norte 16 Sudoeste 0 -- -- 26
2019-06-09 14:00:00 28.4 7 Sudoeste 26 Sudoeste 0 -- -- 25
2019-06-09 13:00:00 28 6 Oeste 14 Norte 0 -- -- 26
2019-06-09 12:00:00 26 4 Noroeste 11 Oeste 0 -- -- 27
2019-06-09 11:00:00 23.1 6 Nordeste 12 Norte 0 -- -- 31
2019-06-09 10:00:00 21.7 5 Noroeste 9 Sudoeste 0 -- -- 33
2019-06-09 09:00:00 17.7 0 Calma 8 Sudeste 0 -- -- 47
2019-06-09 08:00:00 16.5 2 Sur 10 Sur 0 -- -- 49
2019-06-09 07:00:00 17.1 10 Sur 25 Sur 0 -- -- 38
2019-06-09 06:00:00 17.4 9 Sudeste 23 Sudeste 0 -- -- 37
2019-06-09 05:00:00 16.4 4 Sudeste 22 Sur 0 -- -- 49
2019-06-09 04:00:00 17.1 10 Sudeste 27 Sur 0 -- -- 47
2019-06-09 03:00:00 17.9 8 Sudeste 40 Sur 0 -- -- 44
2019-06-09 02:00:00 17.7 19 Sur 42 Sur 0 -- -- 42
2019-06-09 01:00:00 17.9 11 Sudeste 34 Sur 0 -- -- 44
2019-06-09 00:00:00 18.3 14 Sudeste 35 Sudeste 0 -- -- 43
2019-06-08 23:00:00 19.6 7 Sudeste 22 Sudeste 0 -- -- 40
2019-06-08 22:00:00 20.6 3 Sudeste 29 Sur 0 -- -- 39
2019-06-08 21:00:00 22.8 17 Sur 32 Sudeste 0 -- -- 37
2019-06-08 20:00:00 23.7 17 Sur 37 Sur 0 -- -- 34
2019-06-08 19:00:00 25.1 21 Sur 39 Sudoeste 0 -- -- 35
2019-06-08 18:00:00 25.6 18 Sur 41 Sur 0 -- -- 33
2019-06-08 17:00:00 26.9 11 Sur 42 Sur 0 -- -- 33
2019-06-08 16:00:00 26.8 9 Sur 33 Sur 0 -- -- 29
2019-06-08 15:00:00 25.6 15 Sur 36 Sudoeste 0 -- -- 32
2019-06-08 14:00:00 24.5 11 Sur 26 Sur 0 -- -- 34
2019-06-08 13:00:00 24.1 4 Sur 12 Sudoeste 0 -- -- 32
2019-06-08 12:00:00 21.1 3 Este 10 Norte 0 -- -- 39
2019-06-08 11:00:00 18.7 5 Norte 12 Nordeste 0 -- -- 45
2019-06-08 10:00:00 15.2 5 Nordeste 11 Norte 0 -- -- 55
2019-06-08 09:00:00 13.2 4 Norte 8 Nordeste 0 -- -- 60
2019-06-08 08:00:00 10.6 0 Calma 3 Nordeste 0 -- -- 71
2019-06-08 07:00:00 6.2 0 Calma 5 Este 0 -- -- 81
2019-06-08 06:00:00 5.5 0 Calma 4 Sudoeste 0 -- -- 80
2019-06-08 05:00:00 6.5 0 Calma 2 Sur 0 -- -- 77
2019-06-08 04:00:00 8.2 0 Calma 7 Sur 0 -- -- 68
2019-06-08 03:00:00 9.3 3 Sur 10 Sudoeste 0 -- -- 63
2019-06-08 02:00:00 8.8 2 Sur 9 Sur 0 -- -- 65
2019-06-08 01:00:00 10.6 5 Sudoeste 8 Sudoeste 0 -- -- 57
2019-06-08 00:00:00 12.4 5 Sudoeste 6 Sudoeste 0 -- -- 51
2019-06-07 23:00:00 15.4 3 Sur 10 Este 0 -- -- 44
2019-06-07 22:00:00 18.8 7 Este 32 Norte 0 -- -- 36
2019-06-07 21:00:00 20.4 15 Nordeste 33 Norte 0 -- -- 32
2019-06-07 20:00:00 21.9 14 Norte 26 Norte 0 -- -- 29
2019-06-07 19:00:00 22.4 11 Noroeste 29 Oeste 0 -- -- 30
2019-06-07 18:00:00 22.4 10 Noroeste 32 Norte 0 -- -- 29
2019-06-07 17:00:00 23.3 12 Noroeste 33 Noroeste 0 -- -- 28
2019-06-07 16:00:00 22.9 16 Norte 37 Noroeste 0 -- -- 29
2019-06-07 15:00:00 22.6 16 Oeste 26 Oeste 0 -- -- 30
2019-06-07 14:00:00 21.4 11 Noroeste 25 Noroeste 0 -- -- 34
2019-06-07 13:00:00 20.5 15 Noroeste 29 Noroeste 0 -- -- 38
2019-06-07 12:00:00 18.7 13 Noroeste 26 Oeste 0 -- -- 44
2019-06-07 11:00:00 16.8 19 Noroeste 30 Noroeste 0 -- -- 58
2019-06-07 10:00:00 13.4 4 Oeste 9 Sudoeste 0 -- -- 80
2019-06-07 09:00:00 11.6 3 Sudoeste 22 Norte 0.4 -- -- 85
2019-06-07 08:00:00 12.1 8 Norte 43 Norte 0 -- -- 81
2019-06-07 07:00:00 15.6 6 Noroeste 26 Sur 0 -- -- 78
2019-06-07 06:00:00 17 17 Sur 37 Sur 0 -- -- 68
2019-06-07 05:00:00 16 20 Sur 40 Sur 0 -- -- 73
2019-06-07 04:00:00 14.6 9 Sudeste 38 Sur 0 -- -- 79
2019-06-07 03:00:00 16.3 21 Sur 45 Sur 0 -- -- 77
2019-06-07 02:00:00 17 24 Sur 46 Sur 0 -- -- 70
2019-06-07 01:00:00 18.3 29 Sur 54 Sur 0 -- -- 58
2019-06-07 00:00:00 18.9 28 Sur 52 Sur 0 -- -- 52
2019-06-06 23:00:00 19.1 25 Sur 45 Sur 0 -- -- 53
2019-06-06 22:00:00 20.7 28 Sur 62 Sur 0 -- -- 46
2019-06-06 21:00:00 21.8 32 Sur 53 Sudeste 0 -- -- 42
2019-06-06 20:00:00 22.7 26 Sur 50 Sur 0 -- -- 38
2019-06-06 19:00:00 23.2 24 Sur 50 Sur 0 -- -- 40
2019-06-06 18:00:00 24.6 31 Sur 56 Sur 0 -- -- 38
2019-06-06 17:00:00 25.4 15 Sudeste 44 Sur 0 -- -- 33
2019-06-06 16:00:00 25.7 21 Sur 39 Sur 0 -- -- 29
2019-06-06 15:00:00 25 15 Sur 34 Sudoeste 0 -- -- 30
2019-06-06 14:00:00 24.1 10 Sudoeste 24 Sudoeste 0 -- -- 30
2019-06-06 13:00:00 22.8 9 Sudoeste 22 Sudoeste 0 -- -- 33
2019-06-06 12:00:00 20.7 13 Sudoeste 25 Sudoeste 0 -- -- 39
2019-06-06 11:00:00 18 3 Este 8 Sur 0 -- -- 50
2019-06-06 10:00:00 15.3 3 Noroeste 10 Oeste 0 -- -- 58
2019-06-06 09:00:00 12.9 3 Sudoeste 8 Oeste 0 -- -- 68
2019-06-06 08:00:00 10.8 3 Sudoeste 7 Sudoeste 0 -- -- 79
2019-06-06 07:00:00 8.3 5 Sudoeste 8 Sudoeste 0 -- -- 86
2019-06-06 06:00:00 8.4 3 Sur 6 Sur 0 -- -- 84
2019-06-06 05:00:00 9.6 4 Sur 9 Sudeste 0 -- -- 84
2019-06-06 04:00:00 10.1 3 Sudoeste 14 Oeste 0 -- -- 81
2019-06-06 03:00:00 11.3 6 Sudoeste 12 Sudoeste 0 -- -- 75
2019-06-06 02:00:00 11.2 4 Sudoeste 7 Sur 0 -- -- 74
2019-06-06 01:00:00 10.7 2 Sudoeste 10 Sur 0 -- -- 75
2019-06-06 00:00:00 10 6 Sudoeste 13 Norte 0 -- -- 75
2019-06-05 23:00:00 12.1 6 Norte 22 Norte 0 -- -- 66
2019-06-05 22:00:00 13.8 11 Norte 34 Norte 0 -- -- 60
2019-06-05 21:00:00 16 18 Norte 38 Norte 0 -- -- 50
2019-06-05 20:00:00 17.1 27 Norte 42 Norte 0 -- -- 49
2019-06-05 19:00:00 18.3 23 Norte 40 Norte 0 -- -- 47
2019-06-05 18:00:00 18.3 28 Norte 48 Norte 0 -- -- 49
2019-06-05 17:00:00 18.1 28 Norte 45 Norte 0 -- -- 50
2019-06-05 16:00:00 18.1 27 Norte 48 Noroeste 0 -- -- 55
2019-06-05 15:00:00 16.5 25 Norte 41 Norte 0.2 -- -- 60
2019-06-05 14:00:00 14.4 21 Noroeste 40 Norte 0.4 -- -- 79
2019-06-05 13:00:00 16.5 19 Norte 33 Norte 0 -- -- 66
2019-06-05 12:00:00 14.3 18 Norte 29 Norte 0 -- -- 81
2019-06-05 11:00:00 12.7 17 Norte 27 Norte 1.2 -- -- 90
2019-06-05 10:00:00 13.5 12 Norte 30 Noroeste 0 -- -- 80
2019-06-05 09:00:00 13.6 12 Oeste 19 Noroeste 0 -- -- 81
2019-06-05 08:00:00 13.7 6 Norte 13 Este 0 -- -- 80
2019-06-05 07:00:00 13.3 6 Este 16 Nordeste 0 -- -- 81
2019-06-05 06:00:00 12.3 5 Sudoeste 8 Sudoeste 0 -- -- 86
2019-06-05 05:00:00 13.3 3 Sur 12 Sur 0 -- -- 83
2019-06-05 04:00:00 13.5 5 Sudoeste 12 Sudoeste 0 -- -- 83
2019-06-05 03:00:00 13.7 8 Sudoeste 13 Sur 0 -- -- 84
2019-06-05 02:00:00 15.2 6 Sudoeste 15 Sudoeste 0 -- -- 81
2019-06-05 01:00:00 17.5 10 Sur 18 Sur 0 -- -- 75
2019-06-05 00:00:00 19.7 8 Sudoeste 18 Sur 0 -- -- 63
2019-06-04 23:00:00 21.7 3 Sudeste 40 Nordeste 0 -- -- 58
2019-06-04 22:00:00 23.4 19 Sur 44 Sudeste 0 -- -- 52
2019-06-04 21:00:00 25.5 22 Sur 47 Sur 0 -- -- 46
2019-06-04 20:00:00 28.3 10 Sudeste 36 Sur 0 -- -- 36
2019-06-04 19:00:00 29.7 17 Sudeste 43 Sudeste 0 -- -- 33
2019-06-04 18:00:00 31.6 16 Sudeste 42 Sudeste 0 -- -- 31
2019-06-04 17:00:00 31.7 13 Sudeste 46 Sudeste 0 -- -- 31
2019-06-04 16:00:00 31.2 13 Sudeste 38 Sur 0 -- -- 32
2019-06-04 15:00:00 31.4 7 Sudeste 28 Sur 0 -- -- 33
2019-06-04 14:00:00 30.7 6 Sudeste 23 Sur 0 -- -- 31
2019-06-04 13:00:00 29.4 7 Sudeste 24 Sur 0 -- -- 34
2019-06-04 12:00:00 26.9 5 Sudeste 17 Sur 0 -- -- 37
2019-06-04 11:00:00 25.7 5 Sudoeste 17 Sur 0 -- -- 37
2019-06-04 10:00:00 22.5 6 Sur 15 Sudeste 0 -- -- 40
2019-06-04 09:00:00 19.7 5 Sudoeste 21 Sudoeste 0 -- -- 49
2019-06-04 08:00:00 18.5 12 Sur 33 Sur 0 -- -- 47
2019-06-04 07:00:00 17.9 16 Sur 35 Sur 0 -- -- 48
2019-06-04 06:00:00 17.8 19 Sur 34 Sur 0 -- -- 49
2019-06-04 05:00:00 17.9 15 Sudeste 32 Sur 0 -- -- 48
2019-06-04 04:00:00 17.9 13 Sudeste 39 Sur 0 -- -- 50
2019-06-04 03:00:00 18.3 11 Sudeste 33 Sudeste 0 -- -- 51
2019-06-04 02:00:00 18.8 11 Sudeste 32 Sur 0 -- -- 50
2019-06-04 01:00:00 19 5 Sudeste 30 Sur 0 -- -- 49
2019-06-04 00:00:00 20.8 11 Sudeste 33 Sur 0 -- -- 46
2019-06-03 23:00:00 22.9 7 Sudeste 32 Sur 0 -- -- 43
2019-06-03 22:00:00 24.3 10 Sudeste 31 Sur 0 -- -- 47
2019-06-03 21:00:00 27.5 8 Sudeste 30 Sudeste 0 -- -- 39
2019-06-03 20:00:00 30.2 17 Sur 33 Sur 0 -- -- 34
2019-06-03 19:00:00 30.7 9 Sudeste 36 Sur 0 -- -- 32
2019-06-03 18:00:00 31.8 10 Sudeste 34 Sur 0 -- -- 29
2019-06-03 17:00:00 32.4 9 Sudeste 27 Sur 0 -- -- 26
2019-06-03 16:00:00 31.9 13 Sur 23 Sur 0 -- -- 27
2019-06-03 15:00:00 32.2 8 Sudoeste 19 Oeste 0 -- -- 25
2019-06-03 14:00:00 31.3 7 Oeste 18 Oeste 0 -- -- 26
2019-06-03 13:00:00 29.4 5 Nordeste 13 Sur 0 -- -- 30
2019-06-03 12:00:00 27.3 3 Nordeste 10 Sudeste 0 -- -- 32
2019-06-03 11:00:00 24.7 4 Sudeste 10 Sur 0 -- -- 35
2019-06-03 10:00:00 22.4 6 Sudoeste 12 Sur 0 -- -- 39
2019-06-03 09:00:00 20.9 8 Sur 25 Sudeste 0 -- -- 40
2019-06-03 08:00:00 19.4 5 Sudeste 22 Sudeste 0 -- -- 41
2019-06-03 07:00:00 15 2 Sudoeste 8 Sur 0 -- -- 60
2019-06-03 06:00:00 17 6 Nordeste 10 Este 0 -- -- 56
2019-06-03 05:00:00 18.1 3 Noroeste 23 Sudoeste 0 -- -- 53
2019-06-03 04:00:00 20.1 12 Sudoeste 25 Sur 0 -- -- 41
2019-06-03 03:00:00 19.9 8 Noroeste 43 Sudeste 0 -- -- 42
2019-06-03 02:00:00 20.4 7 Sudeste 23 Sudeste 0 -- -- 42
2019-06-03 01:00:00 21.7 5 Este 44 Norte 0 -- -- 40
2019-06-03 00:00:00 22.6 4 Este 15 Este 0 -- -- 40
2019-06-02 23:00:00 24.7 3 Este 30 Sur 0 -- -- 37
2019-06-02 22:00:00 27 16 Sur 31 Sur 0 -- -- 28
2019-06-02 21:00:00 29 10 Sudoeste 26 Sur 0 -- -- 31
2019-06-02 20:00:00 31.2 8 Sudeste 24 Sur 0 -- -- 29
2019-06-02 19:00:00 33.7 11 Sudoeste 21 Sudoeste 0 -- -- 23
2019-06-02 18:00:00 33.6 8 Sudoeste 20 Sudoeste 0 -- -- 22
2019-06-02 17:00:00 34.1 9 Sudoeste 20 Oeste 0 -- -- 24
2019-06-02 16:00:00 33.9 9 Noroeste 18 Oeste 0 -- -- 25
2019-06-02 15:00:00 32.8 5 Oeste 18 Sudoeste 0 -- -- 25
2019-06-02 14:00:00 32.1 11 Oeste 22 Sur 0 -- -- 26
2019-06-02 13:00:00 30.2 5 Norte 11 Norte 0 -- -- 31
2019-06-02 12:00:00 27.7 4 Sudeste 10 Sur 0 -- -- 31
2019-06-02 11:00:00 24.6 5 Norte 10 Sudoeste 0 -- -- 38
2019-06-02 10:00:00 22.5 3 Sur 9 Oeste 0 -- -- 39
2019-06-02 09:00:00 19.4 2 Sudoeste 8 Sudoeste 0 -- -- 45
2019-06-02 08:00:00 17.5 6 Sudoeste 11 Sur 0 -- -- 53
2019-06-02 07:00:00 18.2 9 Sur 25 Sur 0 -- -- 44
2019-06-02 06:00:00 18.1 13 Sur 27 Sur 0 -- -- 45
2019-06-02 05:00:00 18.2 10 Sur 22 Sudeste 0 -- -- 47
2019-06-02 04:00:00 17 4 Oeste 21 Sur 0 -- -- 50
2019-06-02 03:00:00 18.6 4 Sudeste 16 Sur 0 -- -- 48
2019-06-02 02:00:00 19 2 Sudeste 15 Sur 0 -- -- 50
2019-06-02 01:00:00 21.4 3 Este 16 Sudoeste 0 -- -- 43
2019-06-02 00:00:00 24 10 Sur 24 Sur 0 -- -- 40
2019-06-01 23:00:00 24.4 14 Sur 32 Sur 0 -- -- 36
2019-06-01 22:00:00 25.1 13 Sur 22 Sudoeste 0 -- -- 37
2019-06-01 21:00:00 28.5 9 Sur 20 Sur 0 -- -- 31
2019-06-01 20:00:00 30.6 9 Sudeste 25 Sur 0 -- -- 23
2019-06-01 19:00:00 31.8 6 Sudeste 23 Sur 0 -- -- 24
2019-06-01 18:00:00 32.4 8 Sudoeste 28 Sur 0 -- -- 24
2019-06-01 17:00:00 32.1 6 Este 26 Sur 0 -- -- 26
2019-06-01 16:00:00 31.4 7 Sudeste 23 Sur 0 -- -- 29
2019-06-01 15:00:00 31.1 6 Este 22 Sur 0 -- -- 30
2019-06-01 14:00:00 30.3 5 Sudoeste 17 Sudoeste 0 -- -- 31
2019-06-01 13:00:00 29.2 6 Oeste 12 Noroeste 0 -- -- 33
2019-06-01 12:00:00 26.6 5 Noroeste 12 Oeste 0 -- -- 38
2019-06-01 11:00:00 24.6 6 Oeste 18 Sur 0 -- -- 44
2019-06-01 10:00:00 22.5 10 Sur 19 Sur 0 -- -- 44
2019-06-01 09:00:00 19.1 5 Oeste 9 Oeste 0 -- -- 56
2019-06-01 08:00:00 18 4 Oeste 8 Sudoeste 0 -- -- 59
2019-06-01 07:00:00 16.5 4 Sudoeste 15 Sur 0 -- -- 61
2019-06-01 06:00:00 16.7 9 Sur 19 Sur 0 -- -- 61
2019-06-01 05:00:00 17.3 8 Sur 24 Sur 0 -- -- 59
2019-06-01 04:00:00 16.7 4 Sur 23 Sudeste 0 -- -- 64
2019-06-01 03:00:00 17.7 5 Sudeste 24 Sur 0 -- -- 62
2019-06-01 02:00:00 17.6 4 Norte 9 Nordeste 0 -- -- 62
2019-06-01 01:00:00 19.3 3 Nordeste 10 Oeste 0 -- -- 55
2019-06-01 00:00:00 19.9 3 Sudoeste 17 Sur 0 -- -- 52
2019-05-31 23:00:00 22.3 4 Sur 16 Sur 0 -- -- 48
2019-05-31 22:00:00 24.1 8 Sur 18 Sur 0 -- -- 46
2019-05-31 21:00:00 27.1 10 Sur 21 Sur 0 -- -- 35
2019-05-31 20:00:00 29.5 4 Norte 13 Noroeste 0 -- -- 33
2019-05-31 19:00:00 30.3 4 Oeste 13 Oeste 0 -- -- 33
2019-05-31 18:00:00 29.7 6 Nordeste 18 Oeste 0 -- -- 31
2019-05-31 17:00:00 29.7 7 Nordeste 24 Sudoeste 0 -- -- 34
2019-05-31 16:00:00 28.2 9 Este 17 Este 0 -- -- 35
2019-05-31 15:00:00 28.4 6 Oeste 20 Sur 0 -- -- 36
2019-05-31 14:00:00 27.3 5 Noroeste 17 Oeste 0 -- -- 37
2019-05-31 13:00:00 26 6 Oeste 15 Sur 0 -- -- 38
2019-05-31 12:00:00 24.2 5 Sudeste 27 Este 0 -- -- 38
2019-05-31 11:00:00 22.5 4 Sudeste 15 Este 0 -- -- 41
2019-05-31 10:00:00 19.1 4 Norte 9 Noroeste 0 -- -- 57
2019-05-31 09:00:00 16.5 2 Este 5 Sudoeste 0 -- -- 67
2019-05-31 08:00:00 15.3 3 Sur 15 Sudeste 0 -- -- 69
2019-05-31 07:00:00 11.7 3 Sudoeste 12 Sur 0 -- -- 78
2019-05-31 06:00:00 12 3 Noroeste 24 Sur 0 -- -- 75
2019-05-31 05:00:00 13.6 3 Oeste 23 Sur 0 -- -- 71
2019-05-31 04:00:00 15.3 13 Sur 23 Sur 0 -- -- 66
2019-05-31 03:00:00 15.5 11 Sur 21 Sudeste 0 -- -- 68
2019-05-31 02:00:00 13.4 0 Calma 8 Sudoeste 0 -- -- 73
2019-05-31 01:00:00 14.8 3 Sudoeste 10 Sur 0 -- -- 67
2019-05-31 00:00:00 16.7 6 Sudoeste 9 Sudoeste 0 -- -- 59
2019-05-30 23:00:00 18.9 6 Sudoeste 13 Sudoeste 0 -- -- 52
2019-05-30 22:00:00 19.9 6 Sudoeste 12 Oeste 0 -- -- 51
2019-05-30 21:00:00 24.7 9 Sudoeste 19 Oeste 0 -- -- 39
2019-05-30 20:00:00 26.9 11 Oeste 15 Noroeste 0 -- -- 34
2019-05-30 19:00:00 28.2 8 Oeste 17 Oeste 0 -- -- 30
2019-05-30 18:00:00 27.5 6 Norte 16 Norte 0 -- -- 29
2019-05-30 17:00:00 27.2 5 Sur 15 Nordeste 0 -- -- 27
2019-05-30 16:00:00 26.5 10 Norte 20 Norte 0 -- -- 30
2019-05-30 15:00:00 25.3 8 Norte 17 Norte 0 -- -- 33
2019-05-30 14:00:00 24 8 Norte 15 Noroeste 0 -- -- 39
2019-05-30 13:00:00 22.2 7 Norte 15 Norte 0 -- -- 41
2019-05-30 12:00:00 20.7 6 Norte 15 Noroeste 0 -- -- 43
2019-05-30 11:00:00 17.6 5 Nordeste 12 Norte 0 -- -- 52
2019-05-30 10:00:00 15 5 Norte 12 Nordeste 0 -- -- 60
2019-05-30 09:00:00 12.1 0 Calma 5 Nordeste 0 -- -- 70
2019-05-30 08:00:00 10 3 Nordeste 6 Nordeste 0 -- -- 83
2019-05-30 07:00:00 6.3 3 Sur 5 Sur 0 -- -- 90
2019-05-30 06:00:00 6.1 0 Calma 6 Sur 0 -- -- 88
2019-05-30 05:00:00 6.7 4 Sudoeste 6 Sudoeste 0 -- -- 88
2019-05-30 04:00:00 7.4 0 Calma 6 Sur 0 -- -- 87
2019-05-30 03:00:00 8.2 3 Sur 7 Sudoeste 0 -- -- 84
2019-05-30 02:00:00 9.1 5 Sudoeste 8 Sudoeste 0 -- -- 79
2019-05-30 01:00:00 10.8 2 Oeste 13 Norte 0 -- -- 73
2019-05-30 00:00:00 12.1 5 Oeste 18 Norte 0 -- -- 68
2019-05-29 23:00:00 13.9 9 Nordeste 28 Norte 0 -- -- 61
2019-05-29 22:00:00 15.6 22 Norte 30 Norte 0 -- -- 55
2019-05-29 21:00:00 17.7 15 Norte 39 Norte 0 -- -- 49
2019-05-29 20:00:00 19.3 24 Norte 50 Norte 0 -- -- 44
2019-05-29 19:00:00 19.9 35 Norte 55 Nordeste 0 -- -- 42
2019-05-29 18:00:00 20.7 33 Norte 53 Norte 0 -- -- 41
2019-05-29 17:00:00 21.1 32 Norte 50 Norte 0 -- -- 39
2019-05-29 16:00:00 21.5 32 Norte 48 Norte 0 -- -- 37
2019-05-29 15:00:00 21.2 28 Norte 57 Norte 0 -- -- 36
2019-05-29 14:00:00 19.9 26 Norte 44 Nordeste 0 -- -- 37
2019-05-29 13:00:00 19.4 23 Norte 45 Nordeste 0 -- -- 42
2019-05-29 12:00:00 17.8 31 Norte 57 Norte 0 -- -- 45
2019-05-29 11:00:00 16.6 29 Norte 44 Norte 0 -- -- 50
2019-05-29 10:00:00 14.7 28 Norte 47 Norte 0 -- -- 59
2019-05-29 09:00:00 13.2 23 Norte 36 Norte 0 -- -- 63
2019-05-29 08:00:00 11.6 8 Norte 22 Nordeste 0 -- -- 71
2019-05-29 07:00:00 9.6 7 Nordeste 13 Norte 0 -- -- 75
2019-05-29 06:00:00 8.9 2 Noroeste 22 Norte 0 -- -- 76
2019-05-29 05:00:00 9.8 10 Norte 35 Norte 0 -- -- 75
2019-05-29 04:00:00 10.5 16 Norte 48 Norte 0 -- -- 72
2019-05-29 03:00:00 11 32 Norte 49 Norte 0 -- -- 69
2019-05-29 02:00:00 11 31 Norte 49 Norte 0 -- -- 68
2019-05-29 01:00:00 11.3 30 Norte 52 Nordeste 0 -- -- 68
2019-05-29 00:00:00 11.7 37 Norte 62 Norte 0 -- -- 66
2019-05-28 23:00:00 12.3 36 Norte 61 Norte 0 -- -- 64
2019-05-28 22:00:00 13 40 Norte 69 Norte 0 -- -- 59
2019-05-28 21:00:00 14.4 46 Norte 69 Norte 0 -- -- 52
2019-05-28 20:00:00 15.8 46 Norte 70 Norte 0 -- -- 48
2019-05-28 19:00:00 16.7 47 Norte 74 Norte 0 -- -- 46
2019-05-28 18:00:00 17.9 44 Norte 68 Norte 0 -- -- 42
2019-05-28 17:00:00 18.8 41 Norte 71 Norte 0 -- -- 46
2019-05-28 16:00:00 19.6 41 Norte 66 Norte 0 -- -- 41
2019-05-28 15:00:00 18.9 48 Norte 68 Norte 0 -- -- 45
2019-05-28 14:00:00 18.6 41 Norte 75 Norte 0 -- -- 46
2019-05-28 13:00:00 18.2 35 Norte 55 Norte 0 -- -- 51
2019-05-28 12:00:00 18 30 Norte 55 Norte 0 -- -- 48
2019-05-28 11:00:00 16.2 32 Norte 50 Norte 0 -- -- 52
2019-05-28 10:00:00 14.7 25 Norte 42 Norte 0 -- -- 57
2019-05-28 09:00:00 13.2 24 Norte 39 Norte 0 -- -- 63
2019-05-28 08:00:00 12 21 Norte 33 Norte 0 -- -- 67
2019-05-28 07:00:00 10.5 19 Norte 48 Norte 0 -- -- 73
2019-05-28 06:00:00 10.7 17 Norte 34 Norte 0 -- -- 69
2019-05-28 05:00:00 10.9 19 Norte 47 Norte 0 -- -- 68
2019-05-28 04:00:00 11.3 21 Norte 38 Norte 0 -- -- 66
2019-05-28 03:00:00 11.9 23 Norte 39 Norte 0 -- -- 68
2019-05-28 02:00:00 11.8 13 Norte 28 Norte 0 -- -- 73
2019-05-28 01:00:00 12.8 9 Noroeste 38 Norte 0 -- -- 63
2019-05-28 00:00:00 13.6 23 Norte 40 Norte 0 -- -- 62
2019-05-27 23:00:00 14.9 27 Nordeste 58 Norte 0 -- -- 62
2019-05-27 22:00:00 16.7 40 Norte 59 Norte 0 -- -- 63
2019-05-27 21:00:00 18.5 30 Norte 59 Norte 0 -- -- 60
2019-05-27 20:00:00 20.2 39 Norte 59 Norte 0 -- -- 53
2019-05-27 19:00:00 21.3 36 Norte 57 Norte 0 -- -- 50
2019-05-27 18:00:00 22.7 32 Norte 55 Norte 0 -- -- 49
2019-05-27 17:00:00 23.3 25 Norte 54 Norte 0 -- -- 48
2019-05-27 16:00:00 22.4 18 Norte 35 Norte 0 -- -- 51
2019-05-27 15:00:00 22.9 22 Norte 40 Norte 0 -- -- 50
2019-05-27 14:00:00 21.9 16 Norte 36 Norte 0 -- -- 53
2019-05-27 13:00:00 19.9 25 Norte 40 Norte 0 -- -- 57
2019-05-27 12:00:00 18.5 17 Norte 38 Noroeste 0 -- -- 58
2019-05-27 11:00:00 17.7 16 Norte 27 Norte 0 -- -- 60
2019-05-27 10:00:00 16 16 Norte 27 Norte 0 -- -- 64
2019-05-27 09:00:00 13.9 12 Norte 19 Norte 0 -- -- 74
2019-05-27 08:00:00 12.2 8 Norte 16 Norte 0 -- -- 81
2019-05-27 07:00:00 8.8 3 Sudoeste 8 Sudoeste 0 -- -- 90
2019-05-27 06:00:00 8.9 0 Calma 4 Sudoeste 0 -- -- 89
2019-05-27 05:00:00 9.6 0 Calma 10 Noroeste 0 -- -- 89
2019-05-27 04:00:00 9.8 3 Noroeste 13 Noroeste 0 -- -- 86
2019-05-27 03:00:00 10.4 5 Noroeste 14 Noroeste 0 -- -- 84
2019-05-27 02:00:00 11.2 8 Norte 15 Norte 0 -- -- 82
2019-05-27 01:00:00 12.3 7 Norte 20 Norte 0 -- -- 77
2019-05-27 00:00:00 12.8 9 Norte 22 Norte 0 -- -- 76
2019-05-26 23:00:00 13.7 14 Norte 27 Norte 0 -- -- 73
2019-05-26 22:00:00 15.1 18 Norte 36 Norte 0 -- -- 68
2019-05-26 21:00:00 17.1 23 Norte 39 Norte 0 -- -- 61
2019-05-26 20:00:00 19.1 27 Norte 42 Norte 0 -- -- 55
2019-05-26 19:00:00 20.7 28 Norte 43 Norte 0 -- -- 50
2019-05-26 18:00:00 21.8 28 Norte 46 Norte 0 -- -- 47
2019-05-26 17:00:00 22.9 22 Norte 37 Norte 0 -- -- 42
2019-05-26 16:00:00 22.7 25 Norte 43 Norte 0 -- -- 46
2019-05-26 15:00:00 22.6 14 Norte 37 Noroeste 0 -- -- 43
2019-05-26 14:00:00 21.6 14 Norte 30 Norte 0 -- -- 46
2019-05-26 13:00:00 21.3 11 Norte 25 Nordeste 0 -- -- 47
2019-05-26 12:00:00 19.5 12 Norte 31 Norte 0 -- -- 52
2019-05-26 11:00:00 17 16 Norte 31 Norte 0 -- -- 57
2019-05-26 10:00:00 14.9 18 Norte 30 Norte 0 -- -- 65
2019-05-26 09:00:00 13.2 20 Norte 36 Nordeste 0 -- -- 71
2019-05-26 08:00:00 11.7 13 Norte 23 Norte 0 -- -- 79
2019-05-26 07:00:00 9.5 7 Norte 21 Norte 0 -- -- 84
2019-05-26 06:00:00 10 10 Norte 24 Norte 0 -- -- 81
2019-05-26 05:00:00 10.3 9 Norte 21 Norte 0 -- -- 81
2019-05-26 04:00:00 9.9 6 Norte 13 Norte 0 -- -- 84
2019-05-26 03:00:00 10.3 8 Norte 22 Norte 0 -- -- 83
2019-05-26 02:00:00 10.1 6 Norte 19 Norte 0 -- -- 84
2019-05-26 01:00:00 10.9 9 Norte 18 Norte 0 -- -- 81
2019-05-26 00:00:00 11.8 8 Norte 20 Norte 0 -- -- 79
2019-05-25 23:00:00 12.6 8 Norte 29 Norte 0 -- -- 76
2019-05-25 22:00:00 14.3 18 Norte 37 Norte 0 -- -- 70
2019-05-25 21:00:00 16.6 21 Norte 40 Norte 0 -- -- 61
2019-05-25 20:00:00 18.4 30 Norte 47 Norte 0 -- -- 56
2019-05-25 19:00:00 20.2 31 Norte 50 Norte 0 -- -- 52
2019-05-25 18:00:00 21.6 28 Norte 57 Norte 0 -- -- 50
2019-05-25 17:00:00 21.8 31 Norte 49 Norte 0 -- -- 48
2019-05-25 16:00:00 22 27 Norte 45 Norte 0 -- -- 48
2019-05-25 15:00:00 22.1 26 Norte 44 Nordeste 0 -- -- 50
2019-05-25 14:00:00 21.3 26 Norte 53 Norte 0 -- -- 51
2019-05-25 13:00:00 20.6 26 Norte 42 Norte 0 -- -- 55
2019-05-25 12:00:00 19.3 23 Norte 35 Nordeste 0 -- -- 55
2019-05-25 11:00:00 18 22 Norte 37 Norte 0 -- -- 59
2019-05-25 10:00:00 16.1 17 Norte 35 Norte 0 -- -- 67
2019-05-25 09:00:00 14.5 21 Norte 31 Norte 0 -- -- 71
2019-05-25 08:00:00 12.1 13 Norte 23 Norte 0 -- -- 79
2019-05-25 07:00:00 11 7 Norte 22 Norte 0 -- -- 83
2019-05-25 06:00:00 11.1 12 Norte 24 Norte 0 -- -- 82
2019-05-25 05:00:00 11.6 13 Norte 23 Norte 0 -- -- 80
2019-05-25 04:00:00 11.8 9 Norte 22 Norte 0 -- -- 79
2019-05-25 03:00:00 11.8 9 Norte 20 Norte 0 -- -- 81
2019-05-25 02:00:00 12.3 9 Norte 16 Norte 0 -- -- 80
2019-05-25 01:00:00 12.7 6 Norte 20 Norte 0 -- -- 81
2019-05-25 00:00:00 13.3 13 Norte 29 Norte 0 -- -- 79
2019-05-24 23:00:00 13.7 21 Norte 28 Norte 0 -- -- 76
2019-05-24 22:00:00 14.1 17 Norte 39 Norte 0 -- -- 74
2019-05-24 21:00:00 15.5 25 Norte 42 Norte 0 -- -- 68
2019-05-24 20:00:00 16.9 30 Norte 48 Nordeste 0 -- -- 64
2019-05-24 19:00:00 17.7 33 Norte 49 Norte 0 -- -- 62
2019-05-24 18:00:00 17.9 25 Norte 41 Norte 0 -- -- 62
2019-05-24 17:00:00 19.6 28 Norte 45 Norte 0 -- -- 58
2019-05-24 16:00:00 19.4 27 Norte 40 Norte 0 -- -- 59
2019-05-24 15:00:00 20.3 15 Norte 33 Norte 0 -- -- 58
2019-05-24 14:00:00 18.9 17 Norte 33 Norte 0 -- -- 66
2019-05-24 13:00:00 16.3 20 Norte 32 Norte 0 -- -- 73
2019-05-24 12:00:00 14.7 18 Norte 26 Norte 0 -- -- 83
2019-05-24 11:00:00 13.6 11 Norte 19 Noroeste 0 -- -- 92
2019-05-24 10:00:00 12.2 10 Noroeste 19 Noroeste 3.6 -- -- 96
2019-05-24 09:00:00 12.3 10 Noroeste 18 Noroeste 3.4 -- -- 96
2019-05-24 08:00:00 12.3 5 Norte 10 Norte 4.2 -- -- 97
2019-05-24 07:00:00 12.3 0 Calma 10 Norte 5 -- -- 96
2019-05-24 06:00:00 12.4 3 Nordeste 26 Norte 1.8 -- -- 95
2019-05-24 05:00:00 13.3 4 Sudoeste 17 Este 4.2 -- -- 94
2019-05-24 04:00:00 13.2 10 Nordeste 22 Norte 0.2 -- -- 91
2019-05-24 03:00:00 14 3 Este 13 Noroeste 0.2 -- -- 90
2019-05-24 02:00:00 15.1 4 Sudoeste 27 Noroeste 0 -- -- 90
2019-05-24 01:00:00 16.3 6 Sur 12 Noroeste 0.4 -- -- 88
2019-05-24 00:00:00 17 9 Noroeste 26 Noroeste 0.2 -- -- 83
2019-05-23 23:00:00 18.7 18 Noroeste 28 Noroeste 0 -- -- 70
2019-05-23 22:00:00 18.9 14 Noroeste 21 Noroeste 0 -- -- 63
2019-05-23 21:00:00 20.6 3 Sudeste 28 Nordeste 0 -- -- 55
2019-05-23 20:00:00 20.8 24 Norte 40 Norte 0 -- -- 60
2019-05-23 19:00:00 26.3 6 Noroeste 11 Nordeste 0 -- -- 29
2019-05-23 18:00:00 27.5 6 Norte 13 Norte 0 -- -- 28
2019-05-23 17:00:00 27.3 4 Norte 18 Norte 0 -- -- 27
2019-05-23 16:00:00 26.9 5 Norte 14 Nordeste 0 -- -- 32
2019-05-23 15:00:00 27.1 5 Nordeste 14 Noroeste 0 -- -- 32
2019-05-23 14:00:00 26.1 6 Nordeste 16 Norte 0 -- -- 35
2019-05-23 13:00:00 25.6 5 Norte 17 Norte 0 -- -- 37
2019-05-23 12:00:00 23.4 7 Nordeste 19 Norte 0 -- -- 42
2019-05-23 11:00:00 22 5 Sudoeste 13 Sudoeste 0 -- -- 46
2019-05-23 10:00:00 19.7 3 Norte 6 Norte 0 -- -- 52
2019-05-23 09:00:00 16.6 3 Norte 5 Nordeste 0 -- -- 59
2019-05-23 08:00:00 13.5 0 Calma 2 Sudoeste 0 -- -- 63
2019-05-23 07:00:00 8.5 0 Calma 5 Sur 0 -- -- 76
2019-05-23 06:00:00 9.9 4 Sur 6 Sudoeste 0 -- -- 67
2019-05-23 05:00:00 9.4 0 Calma 4 Nordeste 0 -- -- 71
2019-05-23 04:00:00 10.4 5 Norte 9 Nordeste 0 -- -- 67
2019-05-23 03:00:00 12.7 2 Sur 9 Sudoeste 0 -- -- 59
2019-05-23 02:00:00 11.9 2 Sudoeste 9 Sudoeste 0 -- -- 60
2019-05-23 01:00:00 12.9 2 Sur 8 Sudoeste 0 -- -- 55
2019-05-23 00:00:00 12.4 0 Calma 7 Sudoeste 0 -- -- 57
2019-05-22 23:00:00 14.5 6 Sudoeste 9 Sudoeste 0 -- -- 44
2019-05-22 22:00:00 16.1 0 Calma 5 Sur 0 -- -- 47
2019-05-22 21:00:00 21.4 3 Noroeste 11 Nordeste 0 -- -- 29
2019-05-22 20:00:00 25.3 6 Nordeste 17 Noroeste 0 -- -- 20
2019-05-22 19:00:00 25.7 6 Norte 18 Nordeste 0 -- -- 22
2019-05-22 18:00:00 26.1 8 Noroeste 20 Noroeste 0 -- -- 23
2019-05-22 17:00:00 25 11 Norte 20 Nordeste 0 -- -- 23
2019-05-22 16:00:00 24.6 4 Oeste 26 Norte 0 -- -- 31
2019-05-22 15:00:00 23.6 12 Norte 22 Noroeste 0 -- -- 36
2019-05-22 14:00:00 22.9 8 Norte 21 Norte 0 -- -- 38
2019-05-22 13:00:00 21.5 8 Noroeste 15 Noroeste 0 -- -- 43
2019-05-22 12:00:00 19.2 4 Noroeste 12 Este 0 -- -- 52
2019-05-22 11:00:00 16.4 5 Nordeste 12 Este 0 -- -- 62
2019-05-22 10:00:00 13.6 5 Nordeste 9 Nordeste 0 -- -- 71
2019-05-22 09:00:00 11.2 0 Calma 4 Norte 0 -- -- 81
2019-05-22 08:00:00 8.9 0 Calma 5 Sudoeste 0 -- -- 87
2019-05-22 07:00:00 5.6 0 Calma 5 Sur 0 -- -- 92
2019-05-22 06:00:00 6.4 5 Sudoeste 9 Sudoeste 0 -- -- 91
2019-05-22 05:00:00 7.2 2 Sur 6 Sur 0 -- -- 87
2019-05-22 04:00:00 7.9 5 Sudoeste 9 Sur 0 -- -- 87
2019-05-22 03:00:00 9.4 4 Sur 9 Sudoeste 0 -- -- 80
2019-05-22 02:00:00 10.5 3 Sudoeste 8 Sudoeste 0 -- -- 74
2019-05-22 01:00:00 11.8 5 Sudoeste 10 Sur 0 -- -- 71
2019-05-22 00:00:00 12.6 4 Norte 8 Sur 0 -- -- 67
2019-05-21 23:00:00 14.3 0 Calma 5 Norte 0 -- -- 58
2019-05-21 22:00:00 15.7 0 Calma 13 Noroeste 0 -- -- 51
2019-05-21 21:00:00 18.8 8 Norte 26 Norte 0 -- -- 43
2019-05-21 20:00:00 22.4 15 Norte 23 Norte 0 -- -- 32
2019-05-21 19:00:00 23.3 10 Norte 28 Norte 0 -- -- 26
2019-05-21 18:00:00 23.6 13 Norte 24 Norte 0 -- -- 26
2019-05-21 17:00:00 24.1 8 Noroeste 28 Norte 0 -- -- 27
2019-05-21 16:00:00 23.1 11 Nordeste 30 Norte 0 -- -- 30
2019-05-21 15:00:00 22.7 11 Norte 26 Norte 0 -- -- 36
2019-05-21 14:00:00 21.5 9 Norte 21 Norte 0 -- -- 39
2019-05-21 13:00:00 20.2 8 Noroeste 18 Norte 0 -- -- 47
2019-05-21 12:00:00 18.1 7 Norte 20 Noroeste 0 -- -- 53
2019-05-21 11:00:00 16.8 8 Noroeste 16 Oeste 0 -- -- 55
2019-05-21 10:00:00 13.2 5 Noroeste 12 Norte 0 -- -- 68
2019-05-21 09:00:00 10.8 5 Norte 11 Norte 0 -- -- 79
2019-05-21 08:00:00 9.1 0 Calma 5 Este 0 -- -- 88
2019-05-21 07:00:00 4.5 0 Calma 5 Este 0 -- -- 90
2019-05-21 06:00:00 4.4 0 Calma 3 Sudoeste 0 -- -- 93
2019-05-21 05:00:00 5.5 3 Sudoeste 5 Sudoeste 0 -- -- 90
2019-05-21 04:00:00 7.8 3 Sur 12 Oeste 0 -- -- 86
2019-05-21 03:00:00 8.4 6 Sudoeste 13 Sudoeste 0 -- -- 84
2019-05-21 02:00:00 10 6 Sudoeste 12 Sudoeste 0 -- -- 78
2019-05-21 01:00:00 11.3 3 Sur 10 Sudoeste 0 -- -- 68
2019-05-21 00:00:00 10.3 5 Sur 9 Sudoeste 0 -- -- 74